Time;durP1;ratioP1;P1;durP2;ratioP2;P2;SDS_P1;SDS_P2;PMS_P1;PMS_P2;Temp;Humidity;BMP_temperature;BMP_pressure;BME280_temperature;BME280_humidity;BME280_pressure;Samples;Min_cycle;Max_cycle;Signal;HPM_P1;HPM_P2
2021/09/14 00:05:32;;;;;;;17.77;11.95;;;15.10;99.90;;;;;;6701574;88;20689;-79
2021/09/14 00:15:32;;;;;;;15.05;10.75;;;15.10;99.90;;;;;;6700444;88;20810;-78
2021/09/14 00:25:35;;;;;;;15.77;11.48;;;14.90;99.90;;;;;;6697089;88;20667;-78
2021/09/14 00:35:35;;;;;;;17.00;12.60;;;14.80;99.90;;;;;;6702304;88;20206;-78
2021/09/14 00:45:36;;;;;;;16.80;11.88;;;14.60;99.90;;;;;;6700406;88;20619;-79
2021/09/14 00:55:36;;;;;;;17.30;12.00;;;14.50;99.90;;;;;;6700967;88;20173;-78
2021/09/14 01:05:37;;;;;;;15.25;11.45;;;14.60;99.90;;;;;;6703360;88;20194;-78
2021/09/14 01:15:37;;;;;;;16.15;11.77;;;14.50;99.90;;;;;;6702379;88;20339;-79
2021/09/14 01:25:38;;;;;;;16.50;12.25;;;14.60;99.90;;;;;;6701226;88;20189;-78
2021/09/14 01:35:39;;;;;;;17.77;10.83;;;14.60;99.90;;;;;;6703009;88;20193;-78
2021/09/14 01:45:39;;;;;;;19.10;12.15;;;14.40;99.90;;;;;;6702063;88;20503;-79
2021/09/14 01:55:40;;;;;;;15.53;11.50;;;14.30;99.90;;;;;;6701338;88;20221;-78
2021/09/14 02:56:15;;;;;;;15.52;11.48;;;14.20;99.90;;;;;;6725757;88;20237;-78
2021/09/14 03:07:14;;;;;;;17.10;11.93;;;14.30;99.90;;;;;;6723290;88;20660;-76
2021/09/14 03:17:15;;;;;;;13.38;10.27;;;14.20;99.90;;;;;;6717335;88;20196;-77
2021/09/14 03:27:15;;;;;;;14.95;10.82;;;14.20;99.90;;;;;;6721346;88;20217;-78
2021/09/14 03:37:16;;;;;;;15.82;10.80;;;14.10;99.90;;;;;;6717136;88;20942;-78
2021/09/14 03:47:16;;;;;;;16.20;11.23;;;13.80;99.90;;;;;;6715815;88;20190;-78
2021/09/14 03:57:17;;;;;;;17.62;12.23;;;13.60;99.90;;;;;;6712981;88;20211;-76
2021/09/14 04:07:26;;;;;;;16.00;11.05;;;13.50;99.90;;;;;;6725864;88;20238;-78
2021/09/14 04:17:26;;;;;;;16.87;11.25;;;13.50;99.90;;;;;;6696639;77;20227;-75
2021/09/14 04:27:27;;;;;;;16.27;11.35;;;13.70;99.90;;;;;;6668126;89;20364;-74
2021/09/14 04:37:28;;;;;;;15.07;10.20;;;13.50;99.90;;;;;;6659692;89;20276;-74
2021/09/14 04:47:28;;;;;;;17.90;11.63;;;13.40;99.90;;;;;;6665541;89;20173;-75
2021/09/14 04:57:29;;;;;;;15.65;10.95;;;13.30;99.90;;;;;;6662264;89;20371;-75
2021/09/14 05:07:29;;;;;;;15.65;10.73;;;13.10;99.90;;;;;;6661037;89;20183;-76
2021/09/14 05:17:30;;;;;;;17.57;11.03;;;13.20;99.90;;;;;;6662036;89;20239;-74
2021/09/14 05:27:31;;;;;;;16.35;10.95;;;13.20;99.90;;;;;;6661105;89;20586;-74
2021/09/14 05:37:31;;;;;;;15.23;10.65;;;13.30;99.90;;;;;;6652306;89;20269;-75
2021/09/14 05:47:32;;;;;;;18.30;11.30;;;13.30;99.90;;;;;;6653564;89;20327;-76
2021/09/14 05:57:32;;;;;;;15.13;10.85;;;13.50;99.90;;;;;;6664493;89;20216;-74
2021/09/14 06:07:33;;;;;;;15.95;11.27;;;13.90;99.90;;;;;;6660251;89;20844;-75
2021/09/14 06:17:34;;;;;;;16.60;11.20;;;14.20;99.90;;;;;;6659057;89;20229;-76
2021/09/14 06:27:34;;;;;;;14.87;11.02;;;14.50;99.90;;;;;;6665284;89;20557;-77
2021/09/14 06:37:35;;;;;;;13.95;10.40;;;14.60;99.90;;;;;;6659781;89;20317;-76
2021/09/14 06:47:36;;;;;;;16.53;10.43;;;15.00;99.90;;;;;;6660780;89;20247;-77
2021/09/14 06:57:36;;;;;;;14.32;10.00;;;15.60;99.90;;;;;;6655016;89;20183;-76
2021/09/14 07:07:37;;;;;;;12.27;8.88;;;16.10;99.90;;;;;;6659831;89;20200;-76
2021/09/14 07:17:38;;;;;;;13.57;8.65;;;16.50;99.90;;;;;;6662559;89;20189;-76
2021/09/14 07:27:38;;;;;;;13.77;8.40;;;17.00;99.90;;;;;;6660560;89;20205;-76
2021/09/14 07:37:39;;;;;;;13.20;8.00;;;17.20;99.90;;;;;;6661589;89;20498;-76
2021/09/14 07:47:39;;;;;;;15.43;7.97;;;17.60;99.90;;;;;;6665669;89;20175;-75
2021/09/14 07:57:40;;;;;;;10.73;6.57;;;17.90;99.90;;;;;;6662382;89;20630;-76
2021/09/14 08:07:40;;;;;;;9.93;6.00;;;18.20;99.90;;;;;;6665481;89;20320;-76
2021/09/14 08:17:41;;;;;;;8.02;5.30;;;18.80;99.90;;;;;;6660930;89;20682;-76
2021/09/14 08:27:42;;;;;;;5.93;4.57;;;19.30;99.90;;;;;;6663611;89;20188;-76
2021/09/14 08:37:42;;;;;;;10.23;5.12;;;20.20;99.90;;;;;;6662755;89;20380;-75
2021/09/14 08:47:45;;;;;;;7.75;4.35;;;20.40;99.90;;;;;;6657381;89;20260;-77
2021/09/14 08:57:52;;;;;;;8.07;4.20;;;21.00;99.90;;;;;;6660436;89;20211;-77
2021/09/14 09:07:53;;;;;;;15.85;4.35;;;21.50;99.90;;;;;;6661569;89;20214;-76
2021/09/14 09:18:02;;;;;;;5.12;3.80;;;21.40;99.90;;;;;;6653077;89;20226;-77
2021/09/14 09:28:09;;;;;;;6.20;3.75;;;21.30;99.90;;;;;;6650899;89;20269;-74
2021/09/14 09:38:10;;;;;;;4.57;3.62;;;21.50;99.90;;;;;;6660630;89;20196;-75
2021/09/14 09:48:12;;;;;;;5.93;4.10;;;22.40;99.90;;;;;;6663622;89;20668;-76
2021/09/14 09:58:14;;;;;;;6.68;3.97;;;23.00;99.90;;;;;;6661938;89;20644;-76
2021/09/14 10:08:21;;;;;;;5.22;3.20;;;23.00;99.90;;;;;;6658564;89;20196;-75
2021/09/14 10:28:23;;;;;;;6.40;3.42;;;24.60;99.90;;;;;;6699929;77;20690;-77
2021/09/14 10:38:25;;;;;;;5.47;3.20;;;24.60;99.90;;;;;;6707551;88;20187;-77
2021/09/14 10:48:31;;;;;;;6.47;3.78;;;24.80;99.90;;;;;;6708811;88;20653;-75
2021/09/14 10:58:41;;;;;;;4.75;3.20;;;24.60;99.90;;;;;;6710281;88;20186;-76
2021/09/14 11:08:45;;;;;;;4.35;3.25;;;24.70;99.90;;;;;;6704434;88;20198;-75
2021/09/14 11:18:46;;;;;;;4.00;2.90;;;25.40;99.90;;;;;;6705212;88;20219;-76
2021/09/14 11:28:59;;;;;;;4.07;3.08;;;27.10;99.90;;;;;;6711532;88;20251;-76
2021/09/14 11:39:04;;;;;;;6.03;3.53;;;27.70;99.90;;;;;;6720968;88;20203;-76
2021/09/14 11:49:07;;;;;;;8.10;3.50;;;26.10;99.90;;;;;;6715454;88;20190;-77
2021/09/14 11:59:15;;;;;;;5.60;3.60;;;26.10;99.90;;;;;;6703599;88;20208;-76
2021/09/14 12:09:17;;;;;;;5.97;3.60;;;25.70;99.90;;;;;;6702207;88;20243;-77
2021/09/14 12:19:18;;;;;;;6.17;3.87;;;25.90;99.90;;;;;;6705869;88;20186;-77
2021/09/14 12:29:19;;;;;;;7.62;3.65;;;25.40;99.90;;;;;;6704951;88;20214;-76
2021/09/14 12:39:21;;;;;;;5.72;3.62;;;25.40;99.90;;;;;;6706418;88;20283;-78
2021/09/14 12:49:21;;;;;;;6.80;3.75;;;25.30;99.90;;;;;;6706055;88;20179;-76
2021/09/14 12:59:22;;;;;;;9.70;4.00;;;25.10;99.90;;;;;;6707639;88;20256;-76
2021/09/14 13:09:23;;;;;;;7.82;3.75;;;25.00;99.90;;;;;;6703139;88;20207;-77
2021/09/14 13:19:23;;;;;;;8.30;4.00;;;24.80;99.90;;;;;;6706239;88;20664;-77
2021/09/14 13:29:24;;;;;;;11.80;5.10;;;24.60;99.90;;;;;;6709780;88;20204;-77
2021/09/14 13:39:25;;;;;;;6.82;3.62;;;25.00;99.90;;;;;;6706819;88;20215;-75
2021/09/14 13:49:25;;;;;;;8.35;3.60;;;25.00;99.90;;;;;;6702901;88;20406;-77
2021/09/14 13:59:27;;;;;;;10.23;4.15;;;24.80;99.90;;;;;;6708024;88;20237;-76
2021/09/14 14:09:27;;;;;;;7.22;3.80;;;24.70;99.90;;;;;;6709255;88;20240;-77
2021/09/14 14:19:28;;;;;;;10.32;4.20;;;25.10;99.90;;;;;;6710568;88;20208;-77
2021/09/14 14:29:28;;;;;;;8.30;3.60;;;25.20;99.90;;;;;;6706688;88;20185;-77
2021/09/14 14:39:29;;;;;;;9.45;3.90;;;25.00;99.90;;;;;;6707684;88;20206;-77
2021/09/14 14:49:30;;;;;;;9.18;4.00;;;24.90;99.90;;;;;;6716173;88;20446;-77
2021/09/14 14:59:31;;;;;;;5.83;3.97;;;24.70;99.90;;;;;;6713346;88;20366;-74
2021/09/14 15:09:31;;;;;;;10.63;3.80;;;24.70;99.90;;;;;;6711466;88;20186;-77
2021/09/14 15:19:32;;;;;;;7.65;3.65;;;24.60;99.90;;;;;;6701766;88;20191;-77
2021/09/14 15:29:36;;;;;;;8.23;4.22;;;24.40;99.90;;;;;;6707759;88;20302;-77
2021/09/14 15:39:37;;;;;;;7.68;4.03;;;24.40;99.90;;;;;;6701644;88;20648;-77
2021/09/14 15:49:38;;;;;;;4.93;4.10;;;24.20;99.90;;;;;;6713663;88;20244;-77
2021/09/14 15:59:38;;;;;;;9.47;4.43;;;24.10;99.90;;;;;;6702344;88;21097;-77
2021/09/14 16:09:39;;;;;;;8.68;4.03;;;23.90;99.90;;;;;;6710341;88;20217;-79
2021/09/14 16:19:39;;;;;;;7.85;4.00;;;23.80;99.90;;;;;;6716143;88;20190;-79
2021/09/14 16:29:40;;;;;;;8.00;4.15;;;23.90;99.90;;;;;;6719535;88;20696;-80
2021/09/14 16:39:40;;;;;;;7.50;4.15;;;23.80;99.90;;;;;;6729246;88;20271;-77
2021/09/14 16:49:46;;;;;;;6.77;4.30;;;23.70;99.90;;;;;;6727955;88;20219;-80
2021/09/14 16:59:46;;;;;;;12.02;4.70;;;23.50;99.90;;;;;;6727276;88;20222;-80
2021/09/14 17:09:47;;;;;;;8.70;4.30;;;23.40;99.90;;;;;;6710753;88;20213;-78
2021/09/14 17:19:47;;;;;;;8.50;4.87;;;23.20;99.90;;;;;;6712948;88;20802;-78
2021/09/14 17:29:48;;;;;;;7.07;4.20;;;23.10;99.90;;;;;;6720809;88;20182;-79
2021/09/14 17:39:49;;;;;;;6.23;4.30;;;23.00;99.90;;;;;;6716654;88;20614;-79
2021/09/14 17:49:49;;;;;;;6.05;4.20;;;22.80;99.90;;;;;;6715420;88;21058;-81
2021/09/14 17:59:50;;;;;;;8.23;4.87;;;22.70;99.90;;;;;;6712664;88;20646;-80
2021/09/14 18:09:50;;;;;;;6.57;4.90;;;22.60;99.90;;;;;;6711598;88;20213;-78
2021/09/14 18:19:51;;;;;;;11.98;5.78;;;22.30;99.90;;;;;;6710872;88;20220;-79
2021/09/14 18:29:52;;;;;;;10.13;5.93;;;22.30;99.90;;;;;;6711837;88;20673;-78
2021/09/14 18:39:52;;;;;;;8.80;5.57;;;22.20;99.90;;;;;;6713980;88;20182;-78
2021/09/14 18:49:53;;;;;;;9.38;5.87;;;22.10;99.90;;;;;;6712098;88;20223;-78
2021/09/14 18:59:53;;;;;;;6.15;5.10;;;22.10;99.90;;;;;;6716532;88;20224;-78
2021/09/14 19:09:54;;;;;;;9.97;5.30;;;22.10;99.90;;;;;;6709370;88;20194;-79
2021/09/14 19:19:54;;;;;;;7.78;5.00;;;22.00;99.90;;;;;;6706759;88;20672;-77
2021/09/14 19:29:55;;;;;;;7.05;5.00;;;22.00;99.90;;;;;;6703735;88;20198;-78
2021/09/14 19:39:55;;;;;;;6.77;5.00;;;21.90;99.90;;;;;;6703989;88;20314;-78
2021/09/14 19:49:56;;;;;;;6.53;5.03;;;21.90;99.90;;;;;;6714500;88;20309;-76
2021/09/14 19:59:57;;;;;;;7.30;4.90;;;21.90;99.90;;;;;;6722718;88;20757;-77
2021/09/14 20:09:57;;;;;;;8.52;5.30;;;21.90;99.90;;;;;;6720322;88;20240;-78
2021/09/14 20:19:58;;;;;;;9.00;5.60;;;22.00;99.90;;;;;;6711105;88;20201;-78
2021/09/14 20:29:59;;;;;;;12.95;7.35;;;21.80;99.90;;;;;;6712161;88;20198;-79
2021/09/14 20:40:01;;;;;;;6.93;4.75;;;21.60;99.90;;;;;;6708075;88;20195;-78
2021/09/14 20:50:02;;;;;;;11.95;6.03;;;21.60;99.90;;;;;;6706869;88;20203;-78
2021/09/14 21:00:06;;;;;;;8.40;5.43;;;21.40;99.90;;;;;;6702485;88;20295;-77
2021/09/14 21:10:08;;;;;;;6.22;5.50;;;21.30;99.90;;;;;;6705715;88;20233;-76
2021/09/14 21:20:09;;;;;;;9.43;5.53;;;21.40;99.90;;;;;;6708017;88;20178;-77
2021/09/14 21:30:11;;;;;;;9.38;5.65;;;21.70;99.90;;;;;;6713549;88;20194;-77
2021/09/14 21:40:12;;;;;;;7.80;5.85;;;21.50;99.90;;;;;;6705390;88;20201;-77
2021/09/14 21:50:13;;;;;;;8.50;6.60;;;21.50;99.90;;;;;;6708242;88;20189;-76
2021/09/14 22:00:14;;;;;;;8.13;6.35;;;21.40;99.90;;;;;;6701345;88;20232;-78
2021/09/14 22:10:14;;;;;;;10.25;5.65;;;21.20;99.90;;;;;;6695461;88;20209;-77
2021/09/14 22:20:15;;;;;;;7.12;5.70;;;21.20;99.90;;;;;;6707688;77;20213;-79
2021/09/14 22:30:17;;;;;;;7.80;5.72;;;20.90;99.90;;;;;;6714795;88;20300;-77
2021/09/14 22:40:18;;;;;;;9.02;5.90;;;20.70;99.90;;;;;;6715081;88;20668;-77
2021/09/14 22:50:18;;;;;;;9.32;6.55;;;20.90;99.90;;;;;;6715486;88;20406;-77
2021/09/14 23:00:19;;;;;;;7.57;6.20;;;21.10;99.90;;;;;;6710081;88;20242;-77
2021/09/14 23:10:20;;;;;;;8.35;6.50;;;20.70;99.90;;;;;;6711995;88;21082;-76
2021/09/14 23:20:20;;;;;;;8.18;6.57;;;20.90;99.90;;;;;;6715364;88;20339;-77
2021/09/14 23:30:21;;;;;;;9.80;6.95;;;20.60;99.90;;;;;;6714844;88;20190;-76
2021/09/14 23:40:21;;;;;;;10.85;7.50;;;20.80;99.90;;;;;;6714832;88;20210;-77
2021/09/14 23:50:22;;;;;;;10.23;7.20;;;20.80;99.90;;;;;;6715395;88;20255;-77
